首页
METAR-TAF:

METAR-TAF

机场 :

楚克國際機場

維諾, 密克罗尼西亚群岛

纬度: 07-28N, 经度: 151-51E, 海拔: 3米

当前天气观测

该预报发布于32分钟前的04:50 UTC
风速5节,风向多变
温度 31°C
湿度 79%
气压 1007 hPa
能見度: 24.1公里
少量云层高于1400英尺
散云层高于12000英尺
多云层高于28000英尺

METAR: PTKK 190450Z VRB05KT 15SM FEW014 SCT120 BKN280 31/27 A2975 RMK SLP076 T03110265

时间: 15:22 (05:22 UTC)

预报

该预报发布于5小时和50分钟前的23:32 UTC
预报有效从19日的 00点(UTC)到 19日的 24点(UTC)
风速7节,风向多变
能見度: 10公里
少量云层高于1400英尺
散云层高于3000英尺
散云层高于12000英尺
附近有阵雨

TAF: PTKK 182332Z 1900/1924 VRB07KT P6SM VCSH FEW014 SCT030 SCT120

超过4000个机场的气象观测和天气预报(METAR&TAF报告)。

可查询的气象台以黄色和红色小点在地图上表示。

将鼠标移到小点上方,可查看气象台名称。

然后点击查看天气观测和预报。

如需切换地图:点击带黑十字的绿色按钮放大地图;点击带横线的绿色按钮缩小地图;或者点击绿色箭头查看邻近地区的地图。


METAR-TAF: